sensor_id;sensor_type;location;lat;lon;timestamp;pressure;altitude;pressure_sealevel;temperature;humidity
46456;BME280;64052;47.466;9.094;2023-03-12T00:02:38;95316.81;;;6.75;62.63
46456;BME280;64052;47.466;9.094;2023-03-12T00:07:39;95339.53;;;6.64;63.80
46456;BME280;64052;47.466;9.094;2023-03-12T00:12:41;95342.88;;;6.66;64.43
46456;BME280;64052;47.466;9.094;2023-03-12T00:17:42;95341.22;;;6.65;64.05
46456;BME280;64052;47.466;9.094;2023-03-12T00:22:44;95331.09;;;6.71;64.22
46456;BME280;64052;47.466;9.094;2023-03-12T00:27:45;95334.31;;;6.64;62.90
46456;BME280;64052;47.466;9.094;2023-03-12T00:32:47;95333.94;;;6.68;63.00
46456;BME280;64052;47.466;9.094;2023-03-12T00:37:49;95330.50;;;6.68;63.62
46456;BME280;64052;47.466;9.094;2023-03-12T00:42:50;95337.16;;;6.49;63.54
46456;BME280;64052;47.466;9.094;2023-03-12T00:47:52;95336.44;;;6.36;64.15
46456;BME280;64052;47.466;9.094;2023-03-12T00:52:53;95335.63;;;6.24;64.93
46456;BME280;64052;47.466;9.094;2023-03-12T00:57:55;95338.09;;;6.25;65.76
46456;BME280;64052;47.466;9.094;2023-03-12T01:02:56;95346.16;;;6.11;65.48
46456;BME280;64052;47.466;9.094;2023-03-12T01:07:58;95343.59;;;6.33;65.20
46456;BME280;64052;47.466;9.094;2023-03-12T01:13:00;95342.03;;;6.42;65.03
46456;BME280;64052;47.466;9.094;2023-03-12T01:18:01;95346.81;;;6.49;64.40
46456;BME280;64052;47.466;9.094;2023-03-12T01:23:03;95335.97;;;6.65;64.80
46456;BME280;64052;47.466;9.094;2023-03-12T01:28:04;95343.97;;;6.74;63.74
46456;BME280;64052;47.466;9.094;2023-03-12T01:33:06;95347.06;;;6.80;63.93
46456;BME280;64052;47.466;9.094;2023-03-12T01:38:11;95346.22;;;6.79;63.88
46456;BME280;64052;47.466;9.094;2023-03-12T01:48:23;95348.47;;;6.84;63.54
46456;BME280;64052;47.466;9.094;2023-03-12T01:53:26;95349.91;;;6.65;63.82
46456;BME280;64052;47.466;9.094;2023-03-12T01:58:31;95347.19;;;6.44;65.07
46456;BME280;64052;47.466;9.094;2023-03-12T02:03:35;95345.00;;;6.26;65.32
46456;BME280;64052;47.466;9.094;2023-03-12T02:08:41;95344.38;;;6.23;65.52
46456;BME280;64052;47.466;9.094;2023-03-12T02:13:45;95341.19;;;6.19;66.52
46456;BME280;64052;47.466;9.094;2023-03-12T02:18:49;95344.31;;;6.47;65.29
46456;BME280;64052;47.466;9.094;2023-03-12T02:24:02;95346.09;;;6.58;65.28
46456;BME280;64052;47.466;9.094;2023-03-12T02:29:09;95350.88;;;6.64;64.80
46456;BME280;64052;47.466;9.094;2023-03-12T02:34:11;95349.56;;;6.58;65.30
46456;BME280;64052;47.466;9.094;2023-03-12T02:39:13;95348.13;;;6.66;65.50
46456;BME280;64052;47.466;9.094;2023-03-12T02:44:24;95344.78;;;6.75;65.24
46456;BME280;64052;47.466;9.094;2023-03-12T02:49:30;95349.56;;;6.70;65.57
46456;BME280;64052;47.466;9.094;2023-03-12T02:54:32;95359.91;;;6.60;65.58
46456;BME280;64052;47.466;9.094;2023-03-12T02:59:34;95360.50;;;6.52;65.89
46456;BME280;64052;47.466;9.094;2023-03-12T03:04:37;95359.09;;;6.59;65.24
46456;BME280;64052;47.466;9.094;2023-03-12T03:09:39;95373.22;;;6.45;65.79
46456;BME280;64052;47.466;9.094;2023-03-12T03:14:41;95366.81;;;6.50;66.69
46456;BME280;64052;47.466;9.094;2023-03-12T03:19:43;95361.22;;;6.66;66.02
46456;BME280;64052;47.466;9.094;2023-03-12T03:24:44;95373.84;;;6.60;65.44
46456;BME280;64052;47.466;9.094;2023-03-12T03:29:46;95367.91;;;6.58;65.55
46456;BME280;64052;47.466;9.094;2023-03-12T03:34:48;95357.53;;;6.57;65.77
46456;BME280;64052;47.466;9.094;2023-03-12T03:39:51;95355.13;;;6.42;65.74
46456;BME280;64052;47.466;9.094;2023-03-12T03:44:52;95365.72;;;6.41;66.68
46456;BME280;64052;47.466;9.094;2023-03-12T03:49:54;95363.06;;;6.29;67.42
46456;BME280;64052;47.466;9.094;2023-03-12T03:54:55;95371.09;;;6.39;67.04
46456;BME280;64052;47.466;9.094;2023-03-12T03:59:58;95355.25;;;6.41;67.27
46456;BME280;64052;47.466;9.094;2023-03-12T04:05:13;95353.81;;;6.37;68.19
46456;BME280;64052;47.466;9.094;2023-03-12T04:10:17;95342.28;;;6.51;67.92
46456;BME280;64052;47.466;9.094;2023-03-12T04:15:19;95341.22;;;6.65;67.56
46456;BME280;64052;47.466;9.094;2023-03-12T04:20:22;95329.41;;;6.59;66.79
46456;BME280;64052;47.466;9.094;2023-03-12T04:25:24;95328.00;;;6.66;67.33
46456;BME280;64052;47.466;9.094;2023-03-12T04:30:26;95306.69;;;6.71;66.66
46456;BME280;64052;47.466;9.094;2023-03-12T04:35:27;95293.09;;;6.77;67.18
46456;BME280;64052;47.466;9.094;2023-03-12T04:40:29;95298.91;;;6.92;67.33
46456;BME280;64052;47.466;9.094;2023-03-12T04:45:31;95317.72;;;6.97;67.14
46456;BME280;64052;47.466;9.094;2023-03-12T04:50:33;95325.44;;;7.10;66.72
46456;BME280;64052;47.466;9.094;2023-03-12T04:55:35;95333.75;;;7.15;66.34
46456;BME280;64052;47.466;9.094;2023-03-12T05:00:38;95329.25;;;7.17;66.28
46456;BME280;64052;47.466;9.094;2023-03-12T05:05:40;95320.88;;;7.24;66.37
46456;BME280;64052;47.466;9.094;2023-03-12T05:10:42;95319.22;;;7.23;66.47
46456;BME280;64052;47.466;9.094;2023-03-12T05:15:46;95306.63;;;7.16;67.21
46456;BME280;64052;47.466;9.094;2023-03-12T05:21:02;95297.16;;;7.25;67.00
46456;BME280;64052;47.466;9.094;2023-03-12T05:26:05;95304.53;;;7.31;66.47
46456;BME280;64052;47.466;9.094;2023-03-12T05:31:09;95298.00;;;7.26;66.43
46456;BME280;64052;47.466;9.094;2023-03-12T05:36:13;95297.16;;;7.25;66.41
46456;BME280;64052;47.466;9.094;2023-03-12T05:41:20;95303.22;;;7.26;66.55
46456;BME280;64052;47.466;9.094;2023-03-12T05:46:25;95305.75;;;7.27;66.76
46456;BME280;64052;47.466;9.094;2023-03-12T05:51:28;95305.72;;;7.39;66.60
46456;BME280;64052;47.466;9.094;2023-03-12T05:56:29;95306.25;;;7.54;66.07
46456;BME280;64052;47.466;9.094;2023-03-12T06:01:31;95299.56;;;7.50;66.83
46456;BME280;64052;47.466;9.094;2023-03-12T06:06:36;95337.50;;;7.45;66.42
46456;BME280;64052;47.466;9.094;2023-03-12T06:11:38;95333.94;;;7.47;67.29
46456;BME280;64052;47.466;9.094;2023-03-12T06:16:40;95339.63;;;7.52;67.15
46456;BME280;64052;47.466;9.094;2023-03-12T06:21:42;95329.16;;;7.40;67.06
46456;BME280;64052;47.466;9.094;2023-03-12T06:26:44;95333.72;;;7.38;67.11
46456;BME280;64052;47.466;9.094;2023-03-12T06:31:46;95332.03;;;7.37;67.31
46456;BME280;64052;47.466;9.094;2023-03-12T06:36:47;95321.59;;;7.26;67.80
46456;BME280;64052;47.466;9.094;2023-03-12T06:41:49;95330.16;;;7.28;68.29
46456;BME280;64052;47.466;9.094;2023-03-12T06:46:50;95338.72;;;7.41;68.56
46456;BME280;64052;47.466;9.094;2023-03-12T06:51:52;95348.47;;;7.51;68.82
46456;BME280;64052;47.466;9.094;2023-03-12T06:56:54;95353.41;;;7.65;69.53
46456;BME280;64052;47.466;9.094;2023-03-12T07:01:55;95362.78;;;7.79;68.57
46456;BME280;64052;47.466;9.094;2023-03-12T07:06:57;95357.41;;;7.81;69.00
46456;BME280;64052;47.466;9.094;2023-03-12T07:11:58;95369.78;;;7.90;68.74
46456;BME280;64052;47.466;9.094;2023-03-12T07:17:00;95377.59;;;8.01;68.95
46456;BME280;64052;47.466;9.094;2023-03-12T07:22:01;95386.69;;;8.19;69.38
46456;BME280;64052;47.466;9.094;2023-03-12T07:27:03;95391.31;;;8.26;69.28
46456;BME280;64052;47.466;9.094;2023-03-12T07:32:04;95396.78;;;8.35;68.88
46456;BME280;64052;47.466;9.094;2023-03-12T07:37:06;95395.09;;;8.34;69.23
46456;BME280;64052;47.466;9.094;2023-03-12T07:42:09;95392.41;;;8.45;69.41
46456;BME280;64052;47.466;9.094;2023-03-12T07:47:11;95399.72;;;8.41;70.02
46456;BME280;64052;47.466;9.094;2023-03-12T07:52:24;95397.66;;;8.66;69.84
46456;BME280;64052;47.466;9.094;2023-03-12T07:57:26;95404.50;;;8.79;70.12
46456;BME280;64052;47.466;9.094;2023-03-12T08:02:27;95405.81;;;8.94;70.45
46456;BME280;64052;47.466;9.094;2023-03-12T08:07:29;95414.69;;;8.93;71.72
46456;BME280;64052;47.466;9.094;2023-03-12T08:12:31;95422.34;;;9.06;71.59
46456;BME280;64052;47.466;9.094;2023-03-12T08:17:33;95422.00;;;9.21;71.69
46456;BME280;64052;47.466;9.094;2023-03-12T08:22:36;95436.22;;;9.49;70.27
46456;BME280;64052;47.466;9.094;2023-03-12T08:27:37;95439.44;;;9.63;69.30
46456;BME280;64052;47.466;9.094;2023-03-12T08:32:39;95433.19;;;9.64;69.18
46456;BME280;64052;47.466;9.094;2023-03-12T08:37:41;95441.78;;;9.66;68.60
46456;BME280;64052;47.466;9.094;2023-03-12T08:42:43;95449.28;;;9.70;68.17
46456;BME280;64052;47.466;9.094;2023-03-12T08:47:45;95447.09;;;9.86;68.37
46456;BME280;64052;47.466;9.094;2023-03-12T08:52:47;95450.69;;;9.94;66.73
46456;BME280;64052;47.466;9.094;2023-03-12T08:57:48;95460.28;;;9.95;66.79
46456;BME280;64052;47.466;9.094;2023-03-12T09:02:50;95461.81;;;9.98;67.31
46456;BME280;64052;47.466;9.094;2023-03-12T09:07:51;95475.25;;;10.05;66.72
46456;BME280;64052;47.466;9.094;2023-03-12T09:12:53;95462.66;;;10.08;66.84
46456;BME280;64052;47.466;9.094;2023-03-12T09:17:55;95460.28;;;10.15;66.67
46456;BME280;64052;47.466;9.094;2023-03-12T09:22:56;95468.06;;;10.26;66.46
46456;BME280;64052;47.466;9.094;2023-03-12T09:27:58;95470.69;;;10.26;65.90
46456;BME280;64052;47.466;9.094;2023-03-12T09:32:59;95475.69;;;10.30;66.31
46456;BME280;64052;47.466;9.094;2023-03-12T09:38:01;95484.13;;;10.23;66.37
46456;BME280;64052;47.466;9.094;2023-03-12T09:48:43;95494.53;;;10.25;67.09
46456;BME280;64052;47.466;9.094;2023-03-12T09:53:55;95494.94;;;10.10;67.23
46456;BME280;64052;47.466;9.094;2023-03-12T09:58:59;95506.59;;;10.18;68.03
46456;BME280;64052;47.466;9.094;2023-03-12T10:04:20;95501.31;;;10.18;67.98
46456;BME280;64052;47.466;9.094;2023-03-12T10:14:51;95514.13;;;10.32;67.44
46456;BME280;64052;47.466;9.094;2023-03-12T10:30:52;95519.81;;;10.87;66.98
46456;BME280;64052;47.466;9.094;2023-03-12T10:35:55;95514.97;;;10.82;67.92
46456;BME280;64052;47.466;9.094;2023-03-12T10:40:57;95527.59;;;10.68;67.56
46456;BME280;64052;47.466;9.094;2023-03-12T10:51:52;95526.63;;;10.60;68.25
46456;BME280;64052;47.466;9.094;2023-03-12T10:56:54;95534.28;;;10.63;68.10
46456;BME280;64052;47.466;9.094;2023-03-12T11:01:57;95538.44;;;10.75;67.26
46456;BME280;64052;47.466;9.094;2023-03-12T11:12:27;95543.00;;;10.63;67.53
46456;BME280;64052;47.466;9.094;2023-03-12T11:17:28;95552.28;;;10.58;68.72
46456;BME280;64052;47.466;9.094;2023-03-12T11:22:33;95553.13;;;10.68;68.67
46456;BME280;64052;47.466;9.094;2023-03-12T11:27:35;95560.78;;;10.81;69.92
46456;BME280;64052;47.466;9.094;2023-03-12T11:32:44;95569.50;;;10.91;69.50
46456;BME280;64052;47.466;9.094;2023-03-12T11:38:07;95582.28;;;10.76;70.17
46456;BME280;64052;47.466;9.094;2023-03-12T11:43:29;95598.22;;;10.85;70.73
46456;BME280;64052;47.466;9.094;2023-03-12T11:48:48;95583.41;;;10.93;70.55
46456;BME280;64052;47.466;9.094;2023-03-12T12:04:55;95567.31;;;11.92;66.02
46456;BME280;64052;47.466;9.094;2023-03-12T12:10:19;95565.16;;;12.33;64.10
46456;BME280;64052;47.466;9.094;2023-03-12T12:20:45;95572.81;;;12.91;61.70
46456;BME280;64052;47.466;9.094;2023-03-12T12:26:08;95570.69;;;12.95;60.46
46456;BME280;64052;47.466;9.094;2023-03-12T12:36:37;95569.97;;;12.20;61.14
46456;BME280;64052;47.466;9.094;2023-03-12T12:41:50;95566.66;;;11.80;61.21
46456;BME280;64052;47.466;9.094;2023-03-12T12:46:59;95566.91;;;11.49;63.43
46456;BME280;64052;47.466;9.094;2023-03-12T12:52:05;95555.69;;;11.37;64.20
46456;BME280;64052;47.466;9.094;2023-03-12T13:02:20;95562.16;;;12.18;62.85
46456;BME280;64052;47.466;9.094;2023-03-12T13:12:32;95554.50;;;12.79;59.27
46456;BME280;64052;47.466;9.094;2023-03-12T13:23:15;95558.31;;;13.21;57.78
46456;BME280;64052;47.466;9.094;2023-03-12T13:33:44;95563.97;;;13.45;56.69
46456;BME280;64052;47.466;9.094;2023-03-12T13:49:25;95566.56;;;13.98;54.27
46456;BME280;64052;47.466;9.094;2023-03-12T13:54:31;95568.75;;;14.02;54.36
46456;BME280;64052;47.466;9.094;2023-03-12T13:59:33;95572.16;;;13.95;53.86
46456;BME280;64052;47.466;9.094;2023-03-12T14:04:38;95550.34;;;13.66;54.61
46456;BME280;64052;47.466;9.094;2023-03-12T14:15:20;95563.34;;;13.51;55.84
46456;BME280;64052;47.466;9.094;2023-03-12T14:20:23;95562.69;;;13.31;55.75
46456;BME280;64052;47.466;9.094;2023-03-12T14:36:08;95532.41;;;13.07;57.34
46456;BME280;64052;47.466;9.094;2023-03-12T14:41:21;95537.50;;;14.31;54.59
46456;BME280;64052;47.466;9.094;2023-03-12T14:46:24;95525.00;;;14.99;52.29
46456;BME280;64052;47.466;9.094;2023-03-12T14:51:28;95527.06;;;16.74;47.60
46456;BME280;64052;47.466;9.094;2023-03-12T14:56:31;95512.38;;;16.31;48.08
46456;BME280;64052;47.466;9.094;2023-03-12T15:01:34;95497.69;;;18.04;43.34
46456;BME280;64052;47.466;9.094;2023-03-12T15:06:56;95506.75;;;19.05;40.38
46456;BME280;64052;47.466;9.094;2023-03-12T15:12:14;95497.44;;;19.51;39.77
46456;BME280;64052;47.466;9.094;2023-03-12T15:17:19;95493.34;;;17.88;41.72
46456;BME280;64052;47.466;9.094;2023-03-12T15:22:23;95496.09;;;15.94;45.77
46456;BME280;64052;47.466;9.094;2023-03-12T15:32:27;95493.19;;;16.36;46.94
46456;BME280;64052;47.466;9.094;2023-03-12T15:37:35;95508.66;;;15.60;47.34
46456;BME280;64052;47.466;9.094;2023-03-12T15:42:40;95518.06;;;14.73;49.77
46456;BME280;64052;47.466;9.094;2023-03-12T15:47:43;95500.41;;;14.47;51.16
46456;BME280;64052;47.466;9.094;2023-03-12T15:53:24;95508.94;;;14.00;51.72
46456;BME280;64052;47.466;9.094;2023-03-12T16:03:31;95503.44;;;14.69;50.69
46456;BME280;64052;47.466;9.094;2023-03-12T16:08:40;95510.59;;;14.01;51.89
46456;BME280;64052;47.466;9.094;2023-03-12T16:13:46;95515.53;;;13.53;53.79
46456;BME280;64052;47.466;9.094;2023-03-12T16:18:48;95523.84;;;13.40;55.05
46456;BME280;64052;47.466;9.094;2023-03-12T16:23:50;95531.75;;;13.31;55.21
46456;BME280;64052;47.466;9.094;2023-03-12T16:28:52;95529.72;;;13.25;55.62
46456;BME280;64052;47.466;9.094;2023-03-12T16:33:53;95531.38;;;13.26;55.73
46456;BME280;64052;47.466;9.094;2023-03-12T16:38:55;95530.72;;;13.24;55.44
46456;BME280;64052;47.466;9.094;2023-03-12T16:43:57;95541.59;;;13.21;55.75
46456;BME280;64052;47.466;9.094;2023-03-12T16:48:59;95531.53;;;12.98;55.55
46456;BME280;64052;47.466;9.094;2023-03-12T16:54:01;95526.91;;;13.00;56.23
46456;BME280;64052;47.466;9.094;2023-03-12T16:59:25;95527.81;;;12.91;56.53
46456;BME280;64052;47.466;9.094;2023-03-12T17:04:28;95533.25;;;12.89;56.55
46456;BME280;64052;47.466;9.094;2023-03-12T17:09:30;95548.31;;;12.89;56.79
46456;BME280;64052;47.466;9.094;2023-03-12T17:14:31;95547.88;;;12.75;56.98
46456;BME280;64052;47.466;9.094;2023-03-12T17:19:33;95553.75;;;12.69;57.08
46456;BME280;64052;47.466;9.094;2023-03-12T17:24:34;95547.13;;;12.65;57.78
46456;BME280;64052;47.466;9.094;2023-03-12T17:29:36;95557.25;;;12.51;57.88
46456;BME280;64052;47.466;9.094;2023-03-12T17:34:37;95558.97;;;12.43;57.54
46456;BME280;64052;47.466;9.094;2023-03-12T17:39:39;95552.47;;;12.37;57.67
46456;BME280;64052;47.466;9.094;2023-03-12T17:44:41;95565.72;;;12.27;58.34
46456;BME280;64052;47.466;9.094;2023-03-12T17:49:42;95555.09;;;12.19;58.73
46456;BME280;64052;47.466;9.094;2023-03-12T17:54:44;95549.59;;;12.02;59.29
46456;BME280;64052;47.466;9.094;2023-03-12T17:59:45;95557.59;;;11.83;59.81
46456;BME280;64052;47.466;9.094;2023-03-12T18:04:47;95550.59;;;11.63;59.86
46456;BME280;64052;47.466;9.094;2023-03-12T18:09:48;95554.22;;;11.62;60.19
46456;BME280;64052;47.466;9.094;2023-03-12T18:14:50;95550.88;;;11.60;59.74
46456;BME280;64052;47.466;9.094;2023-03-12T18:19:51;95551.41;;;11.64;59.52
46456;BME280;64052;47.466;9.094;2023-03-12T18:24:53;95536.84;;;11.60;59.18
46456;BME280;64052;47.466;9.094;2023-03-12T18:29:54;95542.16;;;11.50;59.47
46456;BME280;64052;47.466;9.094;2023-03-12T18:34:56;95543.84;;;11.41;59.95
46456;BME280;64052;47.466;9.094;2023-03-12T18:39:57;95536.47;;;11.45;59.55
46456;BME280;64052;47.466;9.094;2023-03-12T18:44:59;95537.88;;;11.39;59.17
46456;BME280;64052;47.466;9.094;2023-03-12T18:50:01;95538.03;;;11.37;59.48
46456;BME280;64052;47.466;9.094;2023-03-12T18:55:03;95543.31;;;11.37;59.53
46456;BME280;64052;47.466;9.094;2023-03-12T19:00:05;95547.19;;;11.33;59.39
46456;BME280;64052;47.466;9.094;2023-03-12T19:05:07;95552.47;;;11.33;59.58
46456;BME280;64052;47.466;9.094;2023-03-12T19:10:10;95559.75;;;11.21;59.51
46456;BME280;64052;47.466;9.094;2023-03-12T19:15:12;95574.50;;;11.04;60.14
46456;BME280;64052;47.466;9.094;2023-03-12T19:20:14;95569.50;;;11.01;59.75
46456;BME280;64052;47.466;9.094;2023-03-12T19:25:15;95579.63;;;10.96;60.28
46456;BME280;64052;47.466;9.094;2023-03-12T19:30:17;95584.78;;;10.88;60.22
46456;BME280;64052;47.466;9.094;2023-03-12T19:35:19;95584.50;;;10.81;60.54
46456;BME280;64052;47.466;9.094;2023-03-12T19:40:20;95582.28;;;10.76;59.96
46456;BME280;64052;47.466;9.094;2023-03-12T19:45:22;95582.94;;;10.49;61.47
46456;BME280;64052;47.466;9.094;2023-03-12T19:50:23;95587.13;;;10.61;60.85
46456;BME280;64052;47.466;9.094;2023-03-12T19:55:25;95597.25;;;10.66;60.38
46456;BME280;64052;47.466;9.094;2023-03-12T20:00:28;95584.22;;;10.54;60.47
46456;BME280;64052;47.466;9.094;2023-03-12T20:05:30;95584.63;;;10.60;60.41
46456;BME280;64052;47.466;9.094;2023-03-12T20:10:32;95580.72;;;10.54;60.07
46456;BME280;64052;47.466;9.094;2023-03-12T20:15:33;95580.06;;;10.62;60.21
46456;BME280;64052;47.466;9.094;2023-03-12T20:20:35;95589.88;;;10.60;60.41
46456;BME280;64052;47.466;9.094;2023-03-12T20:25:40;95598.19;;;10.45;60.16
46456;BME280;64052;47.466;9.094;2023-03-12T20:30:41;95604.69;;;10.31;60.01
46456;BME280;64052;47.466;9.094;2023-03-12T20:35:43;95603.84;;;10.31;59.97
46456;BME280;64052;47.466;9.094;2023-03-12T20:40:45;95600.34;;;10.20;60.08
46456;BME280;64052;47.466;9.094;2023-03-12T20:45:46;95595.75;;;10.22;59.66
46456;BME280;64052;47.466;9.094;2023-03-12T20:50:48;95589.69;;;10.22;59.76
46456;BME280;64052;47.466;9.094;2023-03-12T20:55:50;95595.63;;;10.24;59.53
46456;BME280;64052;47.466;9.094;2023-03-12T21:00:52;95603.97;;;10.29;59.47
46456;BME280;64052;47.466;9.094;2023-03-12T21:05:59;95607.44;;;10.30;59.36
46456;BME280;64052;47.466;9.094;2023-03-12T21:11:05;95595.94;;;10.31;59.36
46456;BME280;64052;47.466;9.094;2023-03-12T21:16:07;95591.91;;;10.26;59.60
46456;BME280;64052;47.466;9.094;2023-03-12T21:21:09;95589.50;;;10.13;59.54
46456;BME280;64052;47.466;9.094;2023-03-12T21:26:10;95595.91;;;10.21;59.76
46456;BME280;64052;47.466;9.094;2023-03-12T21:31:15;95603.81;;;10.21;59.76
46456;BME280;64052;47.466;9.094;2023-03-12T21:36:17;95599.38;;;10.21;60.15
46456;BME280;64052;47.466;9.094;2023-03-12T21:41:19;95589.50;;;10.13;59.72
46456;BME280;64052;47.466;9.094;2023-03-12T21:46:21;95601.19;;;10.21;59.56
46456;BME280;64052;47.466;9.094;2023-03-12T21:51:22;95597.03;;;10.28;59.16
46456;BME280;64052;47.466;9.094;2023-03-12T21:56:24;95590.78;;;10.29;59.60
46456;BME280;64052;47.466;9.094;2023-03-12T22:01:26;95579.94;;;10.22;59.37
46456;BME280;64052;47.466;9.094;2023-03-12T22:06:28;95570.25;;;10.23;59.75
46456;BME280;64052;47.466;9.094;2023-03-12T22:11:29;95575.38;;;10.24;59.80
46456;BME280;64052;47.466;9.094;2023-03-12T22:16:31;95563.72;;;10.17;59.73
46456;BME280;64052;47.466;9.094;2023-03-12T22:21:33;95553.88;;;10.19;59.66
46456;BME280;64052;47.466;9.094;2023-03-12T22:26:34;95563.31;;;10.22;60.05
46456;BME280;64052;47.466;9.094;2023-03-12T22:31:36;95561.94;;;10.27;59.92
46456;BME280;64052;47.466;9.094;2023-03-12T22:36:38;95560.69;;;10.22;59.71
46456;BME280;64052;47.466;9.094;2023-03-12T22:41:40;95560.53;;;10.23;59.76
46456;BME280;64052;47.466;9.094;2023-03-12T22:46:41;95554.28;;;10.24;59.76
46456;BME280;64052;47.466;9.094;2023-03-12T22:51:43;95532.28;;;10.25;59.87
46456;BME280;64052;47.466;9.094;2023-03-12T22:56:44;95525.31;;;10.24;60.24
46456;BME280;64052;47.466;9.094;2023-03-12T23:01:46;95516.19;;;10.19;60.20
46456;BME280;64052;47.466;9.094;2023-03-12T23:06:47;95513.81;;;10.16;60.14
46456;BME280;64052;47.466;9.094;2023-03-12T23:11:49;95507.84;;;10.23;59.97
46456;BME280;64052;47.466;9.094;2023-03-12T23:16:50;95504.22;;;10.15;60.38
46456;BME280;64052;47.466;9.094;2023-03-12T23:21:52;95499.25;;;10.21;59.94
46456;BME280;64052;47.466;9.094;2023-03-12T23:26:53;95496.34;;;10.24;59.93
46456;BME280;64052;47.466;9.094;2023-03-12T23:31:55;95500.09;;;10.22;59.93
46456;BME280;64052;47.466;9.094;2023-03-12T23:36:57;95481.22;;;10.17;60.44
46456;BME280;64052;47.466;9.094;2023-03-12T23:41:58;95485.09;;;10.22;59.81
46456;BME280;64052;47.466;9.094;2023-03-12T23:47:00;95482.88;;;10.18;60.13
46456;BME280;64052;47.466;9.094;2023-03-12T23:52:01;95468.03;;;10.07;60.92
46456;BME280;64052;47.466;9.094;2023-03-12T23:57:02;95490.09;;;10.06;60.66
